createdAt,value
2018-07-23T00:01:22.636Z,8.63
2018-07-23T00:03:50.695Z,13.75
2018-07-23T00:06:18.731Z,12.07
2018-07-23T00:08:46.816Z,8.93
2018-07-23T00:11:14.882Z,9.03
2018-07-23T00:13:42.961Z,7.33
2018-07-23T00:16:10.976Z,8.83
2018-07-23T00:18:39.085Z,7.45
2018-07-23T00:21:07.144Z,8.90
2018-07-23T00:23:35.168Z,7.00
2018-07-23T00:26:03.199Z,9.18
2018-07-23T00:28:31.232Z,7.62
2018-07-23T00:30:59.281Z,8.05
2018-07-23T00:33:27.312Z,7.20
2018-07-23T00:35:55.355Z,18.12
2018-07-23T00:38:23.395Z,4.83
2018-07-23T00:40:51.422Z,7.75
2018-07-23T00:43:19.474Z,6.12
2018-07-23T00:45:47.508Z,5.83
2018-07-23T00:48:15.548Z,6.95
2018-07-23T00:50:43.571Z,8.30
2018-07-23T00:53:11.616Z,5.22
2018-07-23T00:55:39.639Z,7.25
2018-07-23T00:58:07.671Z,8.03
2018-07-23T01:00:35.696Z,5.65
2018-07-23T01:03:05.656Z,8.15
2018-07-23T01:05:34.248Z,6.22
2018-07-23T01:08:02.296Z,6.70
2018-07-23T01:10:30.351Z,5.60
2018-07-23T01:12:58.403Z,7.12
2018-07-23T01:15:26.432Z,5.25
2018-07-23T01:17:54.471Z,8.08
2018-07-23T01:20:22.531Z,9.25
2018-07-23T01:22:50.568Z,7.17
2018-07-23T01:25:18.592Z,8.75
2018-07-23T01:27:46.628Z,6.53
2018-07-23T01:30:14.654Z,6.75
2018-07-23T01:32:42.712Z,7.83
2018-07-23T01:35:10.752Z,7.20
2018-07-23T01:37:38.784Z,7.65
2018-07-23T01:40:06.825Z,6.50
2018-07-23T01:42:34.875Z,6.05
2018-07-23T01:45:02.919Z,8.33
2018-07-23T01:47:30.940Z,6.90
2018-07-23T01:49:58.976Z,7.83
2018-07-23T01:52:27.028Z,6.12
2018-07-23T01:54:55.175Z,10.63
2018-07-23T01:57:23.196Z,7.58
2018-07-23T01:59:51.228Z,6.10
2018-07-23T02:02:19.256Z,11.10
2018-07-23T02:04:47.328Z,5.80
2018-07-23T02:07:15.376Z,7.65
2018-07-23T02:09:43.742Z,5.83
2018-07-23T02:12:11.800Z,7.12
2018-07-23T02:14:39.832Z,5.28
2018-07-23T02:17:07.860Z,5.78
2018-07-23T02:19:35.900Z,5.90
2018-07-23T02:22:03.936Z,6.30
2018-07-23T02:24:31.983Z,6.97
2018-07-23T02:27:00.040Z,7.50
2018-07-23T02:29:28.096Z,9.48
2018-07-23T02:31:56.129Z,10.10
2018-07-23T02:34:24.168Z,5.37
2018-07-23T02:36:52.196Z,6.25
2018-07-23T02:39:20.283Z,6.40
2018-07-23T02:41:48.307Z,9.43
2018-07-23T02:44:16.355Z,9.65
2018-07-23T02:46:44.380Z,11.75
2018-07-23T02:49:12.444Z,9.78
2018-07-23T02:51:40.463Z,7.42
2018-07-23T02:54:08.496Z,6.03
2018-07-23T02:56:36.551Z,7.17
2018-07-23T02:59:04.608Z,12.13
2018-07-23T03:01:32.659Z,10.00
2018-07-23T03:04:00.728Z,9.45
2018-07-23T03:06:29.736Z,9.33
2018-07-23T03:08:58.060Z,9.68
2018-07-23T03:11:26.462Z,8.13
2018-07-23T03:13:54.508Z,10.68
2018-07-23T03:16:22.563Z,8.00
2018-07-23T03:18:51.200Z,9.08
2018-07-23T03:21:19.230Z,6.95
2018-07-23T03:23:47.267Z,8.10
2018-07-23T03:26:15.320Z,9.50
2018-07-23T03:28:43.367Z,7.55
2018-07-23T03:31:11.416Z,7.67
2018-07-23T03:33:39.464Z,7.20
2018-07-23T03:36:07.517Z,11.22
2018-07-23T03:38:35.552Z,9.33
2018-07-23T03:41:03.623Z,8.48
2018-07-23T03:43:31.644Z,9.05
2018-07-23T03:45:59.707Z,9.48
2018-07-23T03:48:27.744Z,9.20
2018-07-23T03:50:55.833Z,8.45
2018-07-23T03:53:23.855Z,9.88
2018-07-23T03:55:51.900Z,10.68
2018-07-23T03:58:19.935Z,8.10
2018-07-23T04:00:47.977Z,7.58
2018-07-23T04:03:16.018Z,8.80
2018-07-23T04:05:44.080Z,7.00
2018-07-23T04:08:12.116Z,7.35
2018-07-23T04:10:40.281Z,8.85
2018-07-23T04:13:08.340Z,5.85
2018-07-23T04:15:36.384Z,10.25
2018-07-23T04:18:04.909Z,10.10
2018-07-23T04:20:35.490Z,9.13
2018-07-23T04:23:04.528Z,8.83
2018-07-23T04:25:32.584Z,7.92
2018-07-23T04:28:01.117Z,10.72
2018-07-23T04:30:29.388Z,6.72
2018-07-23T04:32:57.696Z,11.00
2018-07-23T04:35:25.760Z,9.40
2018-07-23T04:37:53.851Z,11.28
2018-07-23T04:40:21.844Z,6.97
2018-07-23T04:42:49.867Z,6.97
2018-07-23T04:45:17.904Z,10.08
2018-07-23T04:47:45.935Z,9.73
2018-07-23T04:50:13.991Z,8.80
2018-07-23T04:52:42.016Z,9.35
2018-07-23T04:55:10.104Z,11.70
2018-07-23T04:57:38.137Z,12.18
2018-07-23T05:00:06.204Z,12.15
2018-07-23T05:02:34.236Z,10.80
2018-07-23T05:05:02.356Z,11.00
2018-07-23T05:07:30.388Z,12.40
2018-07-23T05:09:58.420Z,8.85
2018-07-23T05:12:26.688Z,10.05
2018-07-23T05:14:54.716Z,11.28
2018-07-23T05:17:22.753Z,8.95
2018-07-23T05:19:50.773Z,9.85
2018-07-23T05:22:18.836Z,11.55
2018-07-23T05:24:46.883Z,13.00
2018-07-23T05:27:14.928Z,14.78
2018-07-23T05:29:42.966Z,10.18
2018-07-23T05:32:11.129Z,12.68
2018-07-23T05:34:39.164Z,14.07
2018-07-23T05:37:07.227Z,7.05
2018-07-23T05:39:35.252Z,13.50
2018-07-23T05:42:03.297Z,14.93
2018-07-23T05:44:31.338Z,10.98
2018-07-23T05:46:59.372Z,9.88
2018-07-23T05:49:27.404Z,10.63
2018-07-23T05:51:55.463Z,16.40
2018-07-23T05:54:23.492Z,15.25
2018-07-23T05:56:51.540Z,13.53
2018-07-23T05:59:19.896Z,19.62
2018-07-23T06:01:47.936Z,7.92
2018-07-23T06:04:16.040Z,11.57
2018-07-23T06:06:44.162Z,7.80
2018-07-23T06:09:12.179Z,7.50
2018-07-23T06:11:40.243Z,12.93
2018-07-23T06:14:08.285Z,7.95
2018-07-23T06:16:36.328Z,8.88
2018-07-23T06:19:04.364Z,6.10
2018-07-23T06:21:32.459Z,9.45
2018-07-23T06:24:00.485Z,9.08
2018-07-23T06:26:28.541Z,6.95
2018-07-23T06:28:56.575Z,8.30
2018-07-23T06:31:24.615Z,7.47
2018-07-23T06:33:52.712Z,10.25
2018-07-23T06:36:20.765Z,9.63
2018-07-23T06:38:48.824Z,12.37
2018-07-23T06:41:16.864Z,11.95
2018-07-23T06:43:44.909Z,10.05
2018-07-23T06:46:12.970Z,11.35
2018-07-23T06:48:41.007Z,12.07
2018-07-23T06:51:09.095Z,14.95
2018-07-23T06:53:37.139Z,10.65
2018-07-23T06:56:05.399Z,9.05
2018-07-23T06:58:33.543Z,9.48
2018-07-23T07:01:01.592Z,12.13
2018-07-23T07:03:29.676Z,12.70
2018-07-23T07:05:57.724Z,14.58
2018-07-23T07:08:25.777Z,14.40
2018-07-23T07:10:53.854Z,14.95
2018-07-23T07:13:21.892Z,14.75
2018-07-23T07:15:49.959Z,17.30
2018-07-23T07:18:18.011Z,12.37
2018-07-23T07:20:46.058Z,20.50
2018-07-23T07:23:14.105Z,13.45
2018-07-23T07:25:42.163Z,17.35
2018-07-23T07:28:10.215Z,12.28
2018-07-23T07:30:38.256Z,11.43
2018-07-23T07:33:06.580Z,21.55
2018-07-23T07:35:34.620Z,19.70
2018-07-23T07:38:02.710Z,18.23
2018-07-23T07:40:30.761Z,20.30
2018-07-23T07:42:58.808Z,14.70
2018-07-23T07:45:26.842Z,16.60
2018-07-23T07:47:54.891Z,15.75
2018-07-23T07:50:22.925Z,14.87
2018-07-23T07:52:50.973Z,13.70
2018-07-23T07:55:19.031Z,15.08
2018-07-23T07:57:47.096Z,22.73
2018-07-23T08:00:15.147Z,20.75
2018-07-23T08:02:43.219Z,22.35
2018-07-23T08:05:11.296Z,19.95
2018-07-23T08:07:39.359Z,25.80
2018-07-23T08:10:07.452Z,18.75
2018-07-23T08:12:35.575Z,13.30
2018-07-23T08:15:03.615Z,19.37
2018-07-23T08:17:31.668Z,20.48
2018-07-23T08:19:59.716Z,21.70
2018-07-23T08:22:27.774Z,24.67
2018-07-23T08:24:55.820Z,28.70
2018-07-23T08:27:23.909Z,22.50
2018-07-23T08:29:51.940Z,20.15
2018-07-23T08:32:20.080Z,23.15
2018-07-23T08:34:48.112Z,20.77
2018-07-23T08:37:16.237Z,16.15
2018-07-23T08:39:44.273Z,25.90
2018-07-23T08:42:12.309Z,18.10
2018-07-23T08:44:40.372Z,30.20
2018-07-23T08:47:08.457Z,25.65
2018-07-23T08:49:36.505Z,24.92
2018-07-23T08:52:04.571Z,22.10
2018-07-23T08:54:32.642Z,24.75
2018-07-23T08:57:00.682Z,35.23
2018-07-23T08:59:28.721Z,25.27
2018-07-23T09:01:56.759Z,27.98
2018-07-23T09:04:24.873Z,25.45
2018-07-23T09:06:53.120Z,27.75
2018-07-23T09:09:21.195Z,42.95
2018-07-23T09:11:49.259Z,30.43
2018-07-23T09:14:17.307Z,22.30
2018-07-23T09:16:45.339Z,30.20
2018-07-23T09:19:13.388Z,27.20
2018-07-23T09:21:41.424Z,32.53
2018-07-23T09:24:09.497Z,43.40
2018-07-23T09:26:37.561Z,31.23
2018-07-23T09:29:05.632Z,38.38
2018-07-23T09:31:33.660Z,32.30
2018-07-23T09:34:01.701Z,33.88
2018-07-23T09:36:29.728Z,41.15
2018-07-23T09:38:57.771Z,56.50
2018-07-23T09:41:25.843Z,56.25
2018-07-23T09:43:53.912Z,57.65
2018-07-23T09:46:21.956Z,52.62
2018-07-23T09:48:50.009Z,66.33
2018-07-23T09:51:18.051Z,59.27
2018-07-23T09:53:46.128Z,66.80
2018-07-23T09:56:14.181Z,62.40
2018-07-23T09:58:42.236Z,73.72
2018-07-23T10:01:13.319Z,45.98
2018-07-23T10:03:42.298Z,63.28
2018-07-23T10:06:10.299Z,58.55
2018-07-23T10:08:38.361Z,47.73
2018-07-23T10:11:06.632Z,81.08
2018-07-23T10:13:34.691Z,65.75
2018-07-23T10:16:02.740Z,56.23
2018-07-23T10:18:30.800Z,51.77
2018-07-23T10:20:58.832Z,57.80
2018-07-23T10:23:26.948Z,59.13
2018-07-23T10:25:54.985Z,84.90
2018-07-23T10:28:23.048Z,81.73
2018-07-23T10:30:51.120Z,59.73
2018-07-23T10:33:19.163Z,94.43
2018-07-23T10:35:47.217Z,97.07
2018-07-23T10:38:15.348Z,93.03
2018-07-23T10:40:43.423Z,101.03
2018-07-23T10:43:11.476Z,102.50
2018-07-23T10:45:39.519Z,68.20
2018-07-23T10:48:07.639Z,73.73
2018-07-23T10:50:35.711Z,97.03
2018-07-23T10:53:03.787Z,109.07
2018-07-23T10:55:31.823Z,65.67
2018-07-23T10:57:59.868Z,80.30
2018-07-23T11:00:27.912Z,77.87
2018-07-23T11:02:55.972Z,132.40
2018-07-23T11:05:24.029Z,83.50
2018-07-23T11:07:52.104Z,126.23
2018-07-23T11:10:20.155Z,106.73
2018-07-23T11:12:48.260Z,82.90
2018-07-23T11:15:16.283Z,82.03
2018-07-23T11:17:44.326Z,70.33
2018-07-23T11:20:13.005Z,80.80
2018-07-23T11:22:41.500Z,66.93
2018-07-23T11:25:38.702Z,58.73
2018-07-23T11:27:37.612Z,84.20
2018-07-23T11:30:05.876Z,86.80
2018-07-23T11:32:34.407Z,96.03
2018-07-23T11:35:02.463Z,57.17
2018-07-23T11:37:30.500Z,88.93
2018-07-23T11:39:58.551Z,87.33
2018-07-23T11:42:26.588Z,89.97
2018-07-23T11:44:54.663Z,110.63
2018-07-23T11:47:22.702Z,80.47
2018-07-23T11:49:50.744Z,91.57
2018-07-23T11:52:18.796Z,75.10
2018-07-23T11:54:46.844Z,87.37
2018-07-23T11:57:14.888Z,83.87
2018-07-23T11:59:42.941Z,74.93
2018-07-23T12:02:10.985Z,103.83
2018-07-23T12:04:39.165Z,97.53
2018-07-23T12:07:07.672Z,92.07
2018-07-23T12:09:35.752Z,58.70
2018-07-23T12:12:03.800Z,90.67
2018-07-23T12:14:31.847Z,102.10
2018-07-23T12:16:59.908Z,111.87
2018-07-23T12:19:27.975Z,92.87
2018-07-23T12:21:56.048Z,91.53
2018-07-23T12:24:24.116Z,83.83
2018-07-23T12:26:52.179Z,106.33
2018-07-23T12:29:20.235Z,59.53
2018-07-23T12:31:48.287Z,100.80
2018-07-23T12:34:16.335Z,73.60
2018-07-23T12:36:44.384Z,68.87
2018-07-23T12:39:12.898Z,65.47
2018-07-23T12:41:41.576Z,69.50
2018-07-23T12:44:09.941Z,85.20
2018-07-23T12:46:38.017Z,74.30
2018-07-23T12:49:06.052Z,99.63
2018-07-23T12:51:34.116Z,89.57
2018-07-23T12:54:02.176Z,80.83
2018-07-23T12:56:30.223Z,58.77
2018-07-23T12:58:58.294Z,73.80
2018-07-23T13:01:26.376Z,99.27
2018-07-23T13:03:54.420Z,94.13
2018-07-23T13:06:22.499Z,83.60
2018-07-23T13:08:50.567Z,94.20
2018-07-23T13:11:18.620Z,117.07
2018-07-23T13:13:46.656Z,83.47
2018-07-23T13:16:14.721Z,64.93
2018-07-23T13:18:42.755Z,87.53
2018-07-23T13:21:10.815Z,90.73
2018-07-23T13:23:38.864Z,107.97
2018-07-23T13:26:07.096Z,77.17
2018-07-23T13:28:35.135Z,66.67
2018-07-23T13:31:03.231Z,83.00
2018-07-23T13:33:31.263Z,53.03
2018-07-23T13:35:59.348Z,57.40
2018-07-23T13:38:27.383Z,73.17
2018-07-23T13:40:55.444Z,85.10
2018-07-23T13:43:23.484Z,98.40
2018-07-23T13:45:51.555Z,78.83
2018-07-23T13:48:19.600Z,100.60
2018-07-23T13:50:47.724Z,83.43
2018-07-23T13:53:15.795Z,103.00
2018-07-23T13:55:43.867Z,83.57
2018-07-23T13:58:11.912Z,89.13
2018-07-23T14:00:39.971Z,101.63
2018-07-23T14:03:08.012Z,71.33
2018-07-23T14:05:36.451Z,85.97
2018-07-23T14:08:04.735Z,81.47
2018-07-23T14:10:32.909Z,57.43
2018-07-23T14:13:00.977Z,81.50
2018-07-23T14:15:29.012Z,87.80
2018-07-23T14:17:57.331Z,106.23
2018-07-23T14:20:25.414Z,80.20
2018-07-23T14:22:53.488Z,65.33
2018-07-23T14:25:21.519Z,90.23
2018-07-23T14:27:49.572Z,74.87
2018-07-23T14:30:17.628Z,93.43
2018-07-23T14:32:45.695Z,83.50
2018-07-23T14:35:13.761Z,89.40
2018-07-23T14:37:41.840Z,81.17
2018-07-23T14:40:09.889Z,85.90
2018-07-23T14:42:37.951Z,99.27
2018-07-23T14:45:06.989Z,97.87
2018-07-23T14:47:35.061Z,98.10
2018-07-23T14:50:03.107Z,143.17
2018-07-23T14:52:31.177Z,96.33
2018-07-23T14:54:59.255Z,103.33
2018-07-23T14:57:27.312Z,103.93
2018-07-23T14:59:55.353Z,102.07
2018-07-23T15:02:23.447Z,132.03
2018-07-23T15:04:51.487Z,93.73
2018-07-23T15:07:19.555Z,130.60
2018-07-23T15:09:47.619Z,118.10
2018-07-23T15:12:15.668Z,117.90
2018-07-23T15:14:43.716Z,119.17
2018-07-23T15:17:11.777Z,87.03
2018-07-23T15:19:39.808Z,94.73
2018-07-23T15:22:07.869Z,115.20
2018-07-23T15:24:35.911Z,141.43
2018-07-23T15:27:04.084Z,128.23
2018-07-23T15:29:32.137Z,112.93
2018-07-23T15:32:00.228Z,101.13
2018-07-23T15:34:28.293Z,93.43
2018-07-23T15:36:56.339Z,104.33
2018-07-23T15:39:24.380Z,91.53
2018-07-23T15:41:52.428Z,92.73
2018-07-23T15:44:21.049Z,114.13
2018-07-23T15:46:48.948Z,82.77
2018-07-23T15:49:16.996Z,107.73
2018-07-23T15:51:45.049Z,112.77
2018-07-23T15:54:13.141Z,103.00
2018-07-23T15:56:41.199Z,73.87
2018-07-23T15:59:09.317Z,80.33
2018-07-23T16:01:37.355Z,125.80
2018-07-23T16:04:05.437Z,82.93
2018-07-23T16:06:33.484Z,62.13
2018-07-23T16:09:01.524Z,58.73
2018-07-23T16:11:29.566Z,60.47
2018-07-23T16:13:57.633Z,75.43
2018-07-23T16:16:25.722Z,76.70
2018-07-23T16:18:53.830Z,77.13
2018-07-23T16:21:21.852Z,45.87
2018-07-23T16:23:49.927Z,43.83
2018-07-23T16:26:18.001Z,52.35
2018-07-23T16:28:46.063Z,66.07
2018-07-23T16:31:14.101Z,59.65
2018-07-23T16:33:42.192Z,75.62
2018-07-23T16:36:10.245Z,74.97
2018-07-23T16:38:38.351Z,56.83
2018-07-23T16:41:06.416Z,61.75
2018-07-23T16:43:34.483Z,53.25
2018-07-23T16:46:02.551Z,76.90
2018-07-23T16:48:30.644Z,58.68
2018-07-23T16:50:58.699Z,59.20
2018-07-23T16:53:26.744Z,67.08
2018-07-23T16:55:54.804Z,65.83
2018-07-23T16:58:22.898Z,79.03
2018-07-23T17:00:50.944Z,77.72
2018-07-23T17:03:19.012Z,62.05
2018-07-23T17:05:47.064Z,73.55
2018-07-23T17:08:15.891Z,64.70
2018-07-23T17:10:43.979Z,53.95
2018-07-23T17:13:12.255Z,39.60
2018-07-23T17:15:40.315Z,57.03
2018-07-23T17:18:08.495Z,47.35
2018-07-23T17:20:36.423Z,61.13
2018-07-23T17:23:04.499Z,50.43
2018-07-23T17:25:32.563Z,64.35
2018-07-23T17:28:00.631Z,61.37
2018-07-23T17:30:28.688Z,58.17
2018-07-23T17:32:56.743Z,51.02
2018-07-23T17:35:24.847Z,77.22
2018-07-23T17:37:52.851Z,70.95
2018-07-23T17:40:20.906Z,70.30
2018-07-23T17:42:48.974Z,52.17
2018-07-23T17:45:17.141Z,53.92
2018-07-23T17:47:45.175Z,51.77
2018-07-23T17:50:13.264Z,63.90
2018-07-23T17:52:41.347Z,52.53
2018-07-23T17:55:09.449Z,51.63
2018-07-23T17:57:37.459Z,66.20
2018-07-23T18:00:05.843Z,53.25
2018-07-23T18:02:33.924Z,69.03
2018-07-23T18:05:01.976Z,69.45
2018-07-23T18:07:30.057Z,51.65
2018-07-23T18:09:58.206Z,52.83
2018-07-23T18:12:26.212Z,60.00
2018-07-23T18:14:54.276Z,58.83
2018-07-23T18:17:22.310Z,66.17
2018-07-23T18:19:50.451Z,56.25
2018-07-23T18:22:19.364Z,49.75
2018-07-23T18:24:47.410Z,42.33
2018-07-23T18:27:15.456Z,73.47
2018-07-23T18:29:43.524Z,65.17
2018-07-23T18:32:11.612Z,70.67
2018-07-23T18:34:39.685Z,53.35
2018-07-23T18:37:07.745Z,41.80
2018-07-23T18:39:35.782Z,39.85
2018-07-23T18:42:03.816Z,67.30
2018-07-23T18:44:31.855Z,44.45
2018-07-23T18:46:59.918Z,65.25
2018-07-23T18:49:41.983Z,53.73
2018-07-23T18:52:10.044Z,36.68
2018-07-23T18:54:38.518Z,38.08
2018-07-23T18:57:07.343Z,52.67
2018-07-23T18:59:35.497Z,41.50
2018-07-23T19:02:04.816Z,50.28
2018-07-23T19:04:32.963Z,37.78
2018-07-23T19:07:01.027Z,45.08
2018-07-23T19:09:29.769Z,56.85
2018-07-23T19:11:58.455Z,34.40
2018-07-23T19:14:26.499Z,31.45
2018-07-23T19:16:55.515Z,31.75
2018-07-23T19:19:23.576Z,44.80
2018-07-23T19:21:51.616Z,50.25
2018-07-23T19:24:19.648Z,50.58
2018-07-23T19:26:47.722Z,36.95
2018-07-23T19:29:15.787Z,36.70
2018-07-23T19:31:43.825Z,39.05
2018-07-23T19:34:11.888Z,25.95
2018-07-23T19:36:39.947Z,34.53
2018-07-23T19:39:09.369Z,25.57
2018-07-23T19:41:37.825Z,32.85
2018-07-23T19:44:06.287Z,24.75
2018-07-23T19:46:34.323Z,28.25
2018-07-23T19:49:02.391Z,28.20
2018-07-23T19:51:30.459Z,27.65
2018-07-23T19:53:58.510Z,31.73
2018-07-23T19:56:26.543Z,29.92
2018-07-23T19:58:54.575Z,26.12
2018-07-23T20:01:22.664Z,30.43
2018-07-23T20:03:50.715Z,40.35
2018-07-23T20:06:22.147Z,34.20
2018-07-23T20:08:50.955Z,32.93
2018-07-23T20:11:19.469Z,31.75
2018-07-23T20:13:47.487Z,41.18
2018-07-23T20:16:15.543Z,36.40
2018-07-23T20:18:43.576Z,35.60
2018-07-23T20:21:11.723Z,50.30
2018-07-23T20:23:39.834Z,38.15
2018-07-23T20:26:07.911Z,39.60
2018-07-23T20:28:36.604Z,38.02
2018-07-23T20:31:04.683Z,35.30
2018-07-23T20:33:32.929Z,31.25
2018-07-23T20:36:01.523Z,33.15
2018-07-23T20:38:29.604Z,29.75
2018-07-23T20:40:57.675Z,32.03
2018-07-23T20:43:26.379Z,15.43
2018-07-23T20:45:54.731Z,13.50
2018-07-23T20:48:22.733Z,19.35
2018-07-23T20:50:50.826Z,19.90
2018-07-23T20:53:18.895Z,23.15
2018-07-23T20:55:46.969Z,19.55
2018-07-23T20:58:15.035Z,17.00
2018-07-23T21:00:43.095Z,14.87
2018-07-23T21:03:11.191Z,15.80
2018-07-23T21:05:39.256Z,15.25
2018-07-23T21:08:07.307Z,15.25
2018-07-23T21:10:35.400Z,14.43
2018-07-23T21:13:03.493Z,18.17
2018-07-23T21:15:31.539Z,19.70
2018-07-23T21:17:59.596Z,21.17
2018-07-23T21:20:29.484Z,20.27
2018-07-23T21:22:57.582Z,26.37
2018-07-23T21:25:25.615Z,23.07
2018-07-23T21:27:53.745Z,19.02
2018-07-23T21:30:21.735Z,22.07
2018-07-23T21:32:49.805Z,22.32
2018-07-23T21:35:17.869Z,18.95
2018-07-23T21:37:45.917Z,28.70
2018-07-23T21:40:13.959Z,23.22
2018-07-23T21:42:42.023Z,23.62
2018-07-23T21:45:10.644Z,24.12
2018-07-23T21:47:38.780Z,23.70
2018-07-23T21:50:07.628Z,21.90
2018-07-23T21:52:35.804Z,16.57
2018-07-23T21:55:04.067Z,18.07
2018-07-23T21:57:32.127Z,19.10
2018-07-23T22:00:00.161Z,16.90
2018-07-23T22:02:28.215Z,15.98
2018-07-23T22:04:56.256Z,13.75
2018-07-23T22:07:24.436Z,16.17
2018-07-23T22:09:52.467Z,19.17
2018-07-23T22:12:20.543Z,15.28
2018-07-23T22:14:48.608Z,13.32
2018-07-23T22:17:16.684Z,17.17
2018-07-23T22:19:44.743Z,14.45
2018-07-23T22:22:12.796Z,18.52
2018-07-23T22:24:40.838Z,14.10
2018-07-23T22:27:08.960Z,18.70
2018-07-23T22:29:37.000Z,15.98
2018-07-23T22:32:05.107Z,19.85
2018-07-23T22:34:33.168Z,20.00
2018-07-23T22:37:01.240Z,19.12
2018-07-23T22:39:29.302Z,20.68
2018-07-23T22:41:57.404Z,18.42
2018-07-23T22:44:25.459Z,18.35
2018-07-23T22:46:53.497Z,14.90
2018-07-23T22:49:21.552Z,20.48
2018-07-23T22:51:49.595Z,18.77
2018-07-23T22:54:17.663Z,16.60
2018-07-23T22:56:45.709Z,15.40
2018-07-23T22:59:13.756Z,17.80
2018-07-23T23:01:41.827Z,17.48
2018-07-23T23:04:09.868Z,18.00
2018-07-23T23:06:37.916Z,19.90
2018-07-23T23:09:07.707Z,17.02
2018-07-23T23:11:35.741Z,14.23
2018-07-23T23:14:03.816Z,11.68
2018-07-23T23:16:31.879Z,13.85
2018-07-23T23:18:59.989Z,13.18
2018-07-23T23:21:28.027Z,18.07
2018-07-23T23:23:56.110Z,14.68
2018-07-23T23:26:24.168Z,11.68
2018-07-23T23:28:52.251Z,17.12
2018-07-23T23:31:20.339Z,14.43
2018-07-23T23:33:48.375Z,15.85
2018-07-23T23:36:16.439Z,12.18
2018-07-23T23:38:44.986Z,14.68
2018-07-23T23:41:13.031Z,17.05
2018-07-23T23:43:41.075Z,18.35
2018-07-23T23:46:09.149Z,17.27
2018-07-23T23:48:37.200Z,14.53
2018-07-23T23:51:05.243Z,14.15
2018-07-23T23:53:33.323Z,13.30
2018-07-23T23:56:01.411Z,14.35
2018-07-23T23:58:29.497Z,14.18
